| time (UTC) | temp C | wind direction | speed KPH | gust KPH | rain 1hr cm | rain 24hr cm | rain mn cm | humidity % | barometer mb |
| 20260504151048 | 20 | 32 | 0.0 | 6.4 | 0.00 | 0.00 | 0.00 | 54 | 1015.5 |
| 20260504150549 | 19 | 32 | 0.0 | 6.4 | 0.00 | 0.00 | 0.00 | 51 | 1015.5 |
| 20260504141034 | 17 | 40 | 0.0 | 4.8 | 0.00 | 0.00 | 0.00 | 65 | 1015.9 |
| 20260504140533 | 16 | 40 | 0.0 | 4.8 | 0.00 | 0.00 | 0.00 | 63 | 1015.8 |
| 20260504130520 | 11 | 40 | 0.0 | 0.0 | 0.00 | 0.00 | 0.00 | 95 | 1015.8 |
| 20260504110508 | 5 | 273 | 0.0 | 0.0 | 0.00 | 0.00 | 0.00 | 94 | 1015.4 |
| 20260504100503 | 6 | 273 | 0.0 | 0.0 | 0.00 | 0.00 | 0.00 | 92 | 1015.1 |
| 20260504090117 | 6 | 273 | 0.0 | 0.0 | 0.00 | 0.00 | 0.00 | 91 | 1015.1 |
| 20260504081546 | 7 | 273 | 0.0 | 0.0 | 0.00 | 0.00 | 0.00 | 90 | 1015.0 |
| 20260504081046 | 7 | 273 | 0.0 | 0.0 | 0.00 | 0.00 | 0.00 | 90 | 1015.0 |
| 20260504080548 | 7 | 273 | 0.0 | 0.0 | 0.00 | 0.00 | 0.00 | 90 | 1015.0 |
| 20260504050515 | 9 | 273 | 0.0 | 0.0 | 0.00 | 0.00 | 0.00 | 85 | 1015.8 |
| 20260504050015 | 9 | 273 | 0.0 | 0.0 | 0.00 | 0.00 | 0.00 | 85 | 1015.8 |
| 20260504045512 | 9 | 273 | 0.0 | 0.0 | 0.00 | 0.00 | 0.00 | 85 | 1015.8 |
| 20260504045016 | 9 | 273 | 0.0 | 0.0 | 0.00 | 0.00 | 0.00 | 84 | 1015.8 |
| 20260504044527 | 10 | 273 | 0.0 | 0.0 | 0.00 | 0.00 | 0.00 | 83 | 1015.8 |
| 20260504044010 | 10 | 273 | 0.0 | 0.0 | 0.00 | 0.00 | 0.00 | 82 | 1015.7 |
| 20260504043508 | 10 | 273 | 0.0 | 0.0 | 0.00 | 0.00 | 0.00 | 82 | 1015.7 |
| 20260504043007 | 10 | 273 | 0.0 | 0.0 | 0.00 | 0.00 | 0.00 | 81 | 1015.7 |
| 20260504042505 | 10 | 273 | 0.0 | 0.0 | 0.00 | 0.00 | 0.00 | 80 | 1015.7 |
| 20260504042008 | 10 | 273 | 0.0 | 0.0 | 0.00 | 0.00 | 0.00 | 81 | 1015.8 |
| 20260504041504 | 10 | 273 | 0.0 | 0.0 | 0.00 | 0.00 | 0.00 | 81 | 1015.7 |
| 20260504041003 | 10 | 273 | 0.0 | 0.0 | 0.00 | 0.00 | 0.00 | 81 | 1015.7 |
| 20260504040502 | 10 | 273 | 0.0 | 0.0 | 0.00 | 0.00 | 0.00 | 80 | 1015.8 |
| 20260504040001 | 10 | 273 | 0.0 | 0.0 | 0.00 | 0.00 | 0.00 | 80 | 1015.8 |
| 20260504035600 | 10 | 273 | 0.0 | 0.0 | 0.00 | 0.00 | 0.00 | 80 | 1015.7 |
| 20260504035100 | 10 | 273 | 0.0 | 0.0 | 0.00 | 0.00 | 0.00 | 79 | 1015.7 |
| 20260504034605 | 10 | 273 | 0.0 | 0.0 | 0.00 | 0.00 | 0.00 | 79 | 1015.7 |
| 20260504034059 | 10 | 273 | 0.0 | 0.0 | 0.00 | 0.00 | 0.00 | 78 | 1015.7 |
| 20260504033559 | 10 | 273 | 0.0 | 0.0 | 0.00 | 0.00 | 0.00 | 77 | 1015.7 |
| 20260504033115 | 10 | 273 | 0.0 | 0.0 | 0.00 | 0.00 | 0.00 | 76 | 1015.8 |
| 20260504032600 | 11 | 273 | 0.0 | 0.0 | 0.00 | 0.00 | 0.00 | 76 | 1015.8 |
| 20260504032058 | 11 | 273 | 0.0 | 0.0 | 0.00 | 0.00 | 0.00 | 76 | 1015.8 |
| 20260504031559 | 11 | 273 | 0.0 | 0.0 | 0.00 | 0.00 | 0.00 | 76 | 1015.8 |
| 20260504031059 | 11 | 273 | 0.0 | 0.0 | 0.00 | 0.00 | 0.00 | 75 | 1015.9 |
| 20260504030558 | 11 | 273 | 0.0 | 0.0 | 0.00 | 0.00 | 0.00 | 75 | 1015.8 |
| 20260504030058 | 11 | 273 | 0.0 | 0.0 | 0.00 | 0.00 | 0.00 | 74 | 1015.8 |
| 20260504025558 | 11 | 273 | 0.0 | 0.0 | 0.00 | 0.00 | 0.00 | 74 | 1015.8 |
| 20260504025058 | 11 | 273 | 0.0 | 0.0 | 0.00 | 0.00 | 0.00 | 73 | 1015.8 |
| 20260504024606 | 11 | 273 | 0.0 | 0.0 | 0.00 | 0.00 | 0.00 | 72 | 1015.8 |
| 20260504024057 | 11 | 273 | 0.0 | 0.0 | 0.00 | 0.00 | 0.00 | 72 | 1015.7 |
| 20260504023557 | 11 | 273 | 0.0 | 0.0 | 0.00 | 0.00 | 0.00 | 72 | 1015.7 |
| 20260504023057 | 11 | 273 | 0.0 | 0.0 | 0.00 | 0.00 | 0.00 | 72 | 1015.7 |
| 20260504022558 | 12 | 273 | 0.0 | 0.0 | 0.00 | 0.00 | 0.00 | 71 | 1015.6 |
| 20260504022056 | 12 | 273 | 0.0 | 0.0 | 0.00 | 0.00 | 0.00 | 71 | 1015.6 |
| 20260504021556 | 12 | 273 | 0.0 | 0.0 | 0.00 | 0.00 | 0.00 | 70 | 1015.5 |
| 20260504021056 | 12 | 273 | 0.0 | 0.0 | 0.00 | 0.00 | 0.00 | 69 | 1015.5 |
| 20260504020556 | 12 | 273 | 0.0 | 0.0 | 0.00 | 0.00 | 0.00 | 68 | 1015.4 |
| 20260504020056 | 12 | 273 | 0.0 | 0.0 | 0.00 | 0.00 | 0.00 | 67 | 1015.3 |
| 20260504015556 | 12 | 273 | 0.0 | 0.0 | 0.00 | 0.00 | 0.00 | 67 | 1015.2 |
| 20260504015058 | 12 | 273 | 0.0 | 0.0 | 0.00 | 0.00 | 0.00 | 66 | 1015.1 |
| 20260504014556 | 12 | 273 | 0.0 | 0.0 | 0.00 | 0.00 | 0.00 | 65 | 1015.0 |
| 20260504014058 | 13 | 273 | 0.0 | 0.0 | 0.00 | 0.00 | 0.00 | 64 | 1014.9 |
| 20260504013555 | 13 | 273 | 0.0 | 0.0 | 0.00 | 0.00 | 0.00 | 63 | 1014.8 |
| 20260504013057 | 13 | 273 | 0.0 | 0.0 | 0.00 | 0.00 | 0.00 | 62 | 1014.8 |
| 20260504012555 | 13 | 273 | 0.0 | 0.0 | 0.00 | 0.00 | 0.00 | 60 | 1014.7 |
| 20260504012055 | 13 | 273 | 0.0 | 0.0 | 0.00 | 0.00 | 0.00 | 60 | 1014.7 |
| 20260504011555 | 13 | 273 | 0.0 | 0.0 | 0.00 | 0.00 | 0.00 | 59 | 1014.7 |
| 20260504011054 | 13 | 273 | 0.0 | 0.0 | 0.00 | 0.00 | 0.00 | 59 | 1014.8 |
| 20260504010554 | 13 | 273 | 0.0 | 0.0 | 0.00 | 0.00 | 0.00 | 57 | 1014.7 |
| 20260504010058 | 14 | 273 | 0.0 | 0.0 | 0.00 | 0.00 | 0.00 | 55 | 1014.7 |
| 20260504005554 | 14 | 273 | 0.0 | 0.0 | 0.00 | 0.00 | 0.00 | 54 | 1014.6 |
| 20260504005057 | 15 | 273 | 0.0 | 0.0 | 0.00 | 0.00 | 0.00 | 54 | 1014.7 |
| 20260504004554 | 15 | 273 | 0.0 | 0.0 | 0.00 | 0.00 | 0.00 | 54 | 1014.5 |
| 20260504004053 | 15 | 273 | 0.0 | 0.0 | 0.00 | 0.00 | 0.00 | 53 | 1014.5 |
| 20260504003557 | 15 | 273 | 0.0 | 0.0 | 0.00 | 0.00 | 0.00 | 54 | 1014.4 |
| 20260504003053 | 15 | 273 | 0.0 | 0.0 | 0.00 | 0.00 | 0.00 | 54 | 1014.3 |
| 20260504002553 | 16 | 273 | 0.0 | 0.0 | 0.00 | 0.00 | 0.00 | 51 | 1014.3 |
| 20260504002053 | 16 | 273 | 0.0 | 0.0 | 0.00 | 0.00 | 0.00 | 51 | 1014.3 |
| 20260504001610 | 16 | 273 | 0.0 | 0.0 | 0.00 | 0.00 | 0.00 | 50 | 1014.3 |
| 20260504001053 | 16 | 273 | 0.0 | 0.0 | 0.00 | 0.00 | 0.00 | 50 | 1014.3 |
| 20260504000552 | 17 | 273 | 0.0 | 0.0 | 0.00 | 0.00 | 0.00 | 50 | 1014.3 |
| 20260504000052 | 17 | 273 | 0.0 | 0.0 | 0.00 | 0.00 | 0.00 | 49 | 1014.2 |
| 20260503235552 | 17 | 286 | 0.0 | 0.0 | 0.00 | 0.00 | 0.00 | 49 | 1014.2 |
| 20260503235052 | 17 | 286 | 0.0 | 1.6 | 0.00 | 0.00 | 0.00 | 48 | 1014.1 |
| 20260503234552 | 17 | 286 | 0.0 | 4.8 | 0.00 | 0.00 | 0.00 | 49 | 1014.2 |
| 20260503234052 | 17 | 286 | 0.0 | 4.8 | 0.00 | 0.00 | 0.00 | 46 | 1014.2 |
| 20260503233552 | 18 | 287 | 0.0 | 4.8 | 0.00 | 0.00 | 0.00 | 47 | 1014.2 |
| 20260503233051 | 18 | 284 | 0.0 | 3.2 | 0.00 | 0.00 | 0.00 | 46 | 1014.2 |
| 20260503232553 | 18 | 284 | 0.0 | 3.2 | 0.00 | 0.00 | 0.00 | 45 | 1014.2 |
| 20260503232050 | 18 | 284 | 0.0 | 4.8 | 0.00 | 0.00 | 0.00 | 44 | 1014.2 |
| 20260503231550 | 18 | 284 | 0.0 | 8.0 | 0.00 | 0.00 | 0.00 | 43 | 1014.2 |
| 20260503231051 | 19 | 284 | 0.0 | 8.0 | 0.00 | 0.00 | 0.00 | 42 | 1014.3 |
| 20260503230549 | 19 | 284 | 0.0 | 0.0 | 0.00 | 0.00 | 0.00 | 43 | 1014.3 |
| 20260503230049 | 20 | 284 | 0.0 | 0.0 | 0.00 | 0.00 | 0.00 | 45 | 1014.3 |
| 20260503225549 | 20 | 284 | 0.0 | 3.2 | 0.00 | 0.00 | 0.00 | 45 | 1014.3 |
| 20260503225049 | 20 | 284 | 0.0 | 0.0 | 0.00 | 0.00 | 0.00 | 46 | 1014.4 |
| 20260503224550 | 19 | 284 | 0.0 | 3.2 | 0.00 | 0.00 | 0.00 | 45 | 1014.3 |
| 20260503224049 | 19 | 284 | 0.0 | 11.3 | 0.00 | 0.00 | 0.00 | 43 | 1014.3 |
| 20260503223549 | 19 | 284 | 1.6 | 11.3 | 0.00 | 0.00 | 0.00 | 43 | 1014.4 |
| 20260503223048 | 20 | 284 | 0.0 | 3.2 | 0.00 | 0.00 | 0.00 | 44 | 1014.2 |
| 20260503222552 | 20 | 284 | 0.0 | 1.6 | 0.00 | 0.00 | 0.00 | 44 | 1014.3 |
| 20260503222047 | 20 | 279 | 0.0 | 0.0 | 0.00 | 0.00 | 0.00 | 41 | 1014.3 |
| 20260503221547 | 21 | 286 | 0.0 | 1.6 | 0.00 | 0.00 | 0.00 | 38 | 1014.4 |
| 20260503221052 | 21 | 286 | 0.0 | 6.4 | 0.00 | 0.00 | 0.00 | 38 | 1014.4 |
| 20260503220547 | 21 | 285 | 0.0 | 6.4 | 0.00 | 0.00 | 0.00 | 35 | 1014.4 |
| 20260503220104 | 21 | 288 | 0.0 | 3.2 | 0.00 | 0.00 | 0.00 | 41 | 1014.4 |
| 20260503215547 | 21 | 288 | 0.0 | 3.2 | 0.00 | 0.00 | 0.00 | 41 | 1014.4 |
| 20260503215047 | 21 | 287 | 0.0 | 4.8 | 0.00 | 0.00 | 0.00 | 43 | 1014.5 |
| 20260503214547 | 21 | 287 | 0.0 | 4.8 | 0.00 | 0.00 | 0.00 | 39 | 1014.4 |
| 20260503214049 | 21 | 287 | 0.0 | 1.6 | 0.00 | 0.00 | 0.00 | 41 | 1014.5 |
| 20260503213547 | 21 | 287 | 0.0 | 1.6 | 0.00 | 0.00 | 0.00 | 38 | 1014.6 |
| 20260503213049 | 21 | 286 | 0.0 | 4.8 | 0.00 | 0.00 | 0.00 | 43 | 1014.6 |
| 20260503212546 | 21 | 286 | 0.0 | 4.8 | 0.00 | 0.00 | 0.00 | 36 | 1014.6 |
| 20260503212046 | 21 | 286 | 0.0 | 6.4 | 0.00 | 0.00 | 0.00 | 36 | 1014.6 |
| 20260503211559 | 21 | 306 | 1.6 | 6.4 | 0.00 | 0.00 | 0.00 | 40 | 1014.7 |
| 20260503211047 | 21 | 306 | 0.0 | 6.4 | 0.00 | 0.00 | 0.00 | 37 | 1014.7 |
| 20260503210543 | 21 | 305 | 0.0 | 6.4 | 0.00 | 0.00 | 0.00 | 38 | 1014.8 |
| 20260503210043 | 21 | 313 | 0.0 | 6.4 | 0.00 | 0.00 | 0.00 | 37 | 1014.7 |
| 20260503205542 | 21 | 309 | 1.6 | 8.0 | 0.00 | 0.00 | 0.00 | 38 | 1014.9 |
| 20260503205041 | 21 | 311 | 0.0 | 8.0 | 0.00 | 0.00 | 0.00 | 38 | 1015.0 |
| 20260503204541 | 21 | 305 | 0.0 | 4.8 | 0.00 | 0.00 | 0.00 | 41 | 1014.9 |
| 20260503204039 | 20 | 225 | 0.0 | 12.9 | 0.00 | 0.00 | 0.00 | 37 | 1015.0 |
| 20260503203539 | 20 | 22 | 0.0 | 9.7 | 0.00 | 0.00 | 0.00 | 44 | 1015.1 |
| 20260503203038 | 20 | 5 | 0.0 | 9.7 | 0.00 | 0.00 | 0.00 | 42 | 1015.0 |
| 20260503202539 | 20 | 100 | 0.0 | 9.7 | 0.00 | 0.00 | 0.00 | 42 | 1015.2 |
| 20260503202037 | 20 | 103 | 1.6 | 12.9 | 0.00 | 0.00 | 0.00 | 45 | 1015.3 |
| 20260503201537 | 20 | 209 | 0.0 | 12.9 | 0.00 | 0.00 | 0.00 | 46 | 1015.3 |
| 20260503201036 | 20 | 123 | 0.0 | 12.9 | 0.00 | 0.00 | 0.00 | 44 | 1015.4 |
| 20260503200535 | 20 | 196 | 0.0 | 6.4 | 0.00 | 0.00 | 0.00 | 45 | 1015.5 |
| 20260503200037 | 20 | 175 | 0.0 | 8.0 | 0.00 | 0.00 | 0.00 | 45 | 1015.6 |
| 20260503195533 | 20 | 182 | 0.0 | 6.4 | 0.00 | 0.00 | 0.00 | 44 | 1015.8 |
| 20260503195033 | 21 | 180 | 0.0 | 6.4 | 0.00 | 0.00 | 0.00 | 43 | 1015.8 |
| 20260503194532 | 20 | 179 | 0.0 | 8.0 | 0.00 | 0.00 | 0.00 | 44 | 1015.8 |
| 20260503194031 | 20 | 179 | 0.0 | 8.0 | 0.00 | 0.00 | 0.00 | 41 | 1016.0 |
| 20260503193532 | 20 | 173 | 0.0 | 6.4 | 0.00 | 0.00 | 0.00 | 40 | 1016.1 |
| 20260503193028 | 20 | 173 | 0.0 | 6.4 | 0.00 | 0.00 | 0.00 | 42 | 1016.1 |
| 20260503192527 | 20 | 173 | 0.0 | 6.4 | 0.00 | 0.00 | 0.00 | 41 | 1016.2 |
| 20260503192026 | 20 | 158 | 0.0 | 9.7 | 0.00 | 0.00 | 0.00 | 44 | 1016.4 |
| 20260503191527 | 20 | 152 | 1.6 | 12.9 | 0.00 | 0.00 | 0.00 | 47 | 1016.3 |
| 20260503191023 | 20 | 161 | 1.6 | 9.7 | 0.00 | 0.00 | 0.00 | 44 | 1016.4 |
| 20260503190521 | 19 | 161 | 1.6 | 8.0 | 0.00 | 0.00 | 0.00 | 44 | 1016.4 |
| 20260503190023 | 20 | 157 | 0.0 | 8.0 | 0.00 | 0.00 | 0.00 | 46 | 1016.5 |
| 20260503185519 | 20 | 158 | 0.0 | 8.0 | 0.00 | 0.00 | 0.00 | 43 | 1016.6 |
| 20260503185020 | 20 | 156 | 0.0 | 4.8 | 0.00 | 0.00 | 0.00 | 41 | 1016.6 |
| 20260503184522 | 20 | 156 | 0.0 | 4.8 | 0.00 | 0.00 | 0.00 | 44 | 1016.8 |
| 20260503184016 | 20 | 150 | 0.0 | 4.8 | 0.00 | 0.00 | 0.00 | 47 | 1016.7 |
| 20260503183520 | 18 | 167 | 0.0 | 9.7 | 0.00 | 0.00 | 0.00 | 48 | 1016.8 |
| 20260503183023 | 18 | 167 | 0.0 | 9.7 | 0.00 | 0.00 | 0.00 | 43 | 1016.8 |
| 20260503182510 | 19 | 155 | 0.0 | 8.0 | 0.00 | 0.00 | 0.00 | 43 | 1016.8 |
| 20260503182009 | 19 | 155 | 0.0 | 8.0 | 0.00 | 0.00 | 0.00 | 43 | 1016.9 |
| 20260503181523 | 18 | 134 | 0.0 | 8.0 | 0.00 | 0.00 | 0.00 | 45 | 1016.8 |
| 20260503181007 | 18 | 134 | 3.2 | 8.0 | 0.00 | 0.00 | 0.00 | 47 | 1016.9 |
| 20260503180506 | 18 | 136 | 0.0 | 8.0 | 0.00 | 0.00 | 0.00 | 46 | 1016.9 |
| 20260503180005 | 18 | 137 | 0.0 | 8.0 | 0.00 | 0.00 | 0.00 | 46 | 1017.0 |
| 20260503175503 | 18 | 130 | 0.0 | 6.4 | 0.00 | 0.00 | 0.00 | 50 | 1017.0 |
| 20260503175004 | 18 | 132 | 0.0 | 11.3 | 0.00 | 0.00 | 0.00 | 49 | 1017.0 |
| 20260503174601 | 18 | 130 | 3.2 | 11.3 | 0.00 | 0.00 | 0.00 | 45 | 1017.0 |
| 20260503174059 | 18 | 234 | 0.0 | 8.0 | 0.00 | 0.00 | 0.00 | 45 | 1017.1 |
| 20260503173557 | 18 | 231 | 0.0 | 4.8 | 0.00 | 0.00 | 0.00 | 44 | 1017.2 |
| 20260503173100 | 18 | 231 | 0.0 | 4.8 | 0.00 | 0.00 | 0.00 | 41 | 1017.2 |
| 20260503172558 | 18 | 232 | 0.0 | 6.4 | 0.00 | 0.00 | 0.00 | 45 | 1017.3 |
| 20260503172052 | 17 | 231 | 1.6 | 6.4 | 0.00 | 0.00 | 0.00 | 48 | 1017.3 |
| 20260503171551 | 18 | 243 | 0.0 | 1.6 | 0.00 | 0.00 | 0.00 | 48 | 1017.3 |
| 20260503171050 | 18 | 243 | 0.0 | 8.0 | 0.00 | 0.00 | 0.00 | 49 | 1017.4 |
| 20260503170548 | 17 | 243 | 0.0 | 8.0 | 0.00 | 0.00 | 0.00 | 46 | 1017.4 |